Alpine Meadows, California
Current Conditions -  °F | °C
As of 10:45 AM on Monday 20 Oct 2014 (Local Time) from KTRK Reporting Station
Scattered Clouds Scattered Clouds  
Wind Chill: 59°   Ceiling: Unl
Heat Index: 59°   Visibility: 10mi
Dew Point: 34°   Wind: 10mph
Humidity: 39%   Direction: 210°SSW
Pressure: 30.04"   Gusts: 18mph
Location:  39.16°N, 120.24°W
Report Text: KTRK 201745Z 21009G16KT 10SM SCT070 SCT100 15/01 A3004 RMK NOSPECI ACSL N
Loading
Personal Weather Stations






























Interactive Weather Map
Tropical Storm Tracking
New forecast layout! Learn more

10-Day Weather Forecast

Advertisements
Track Severe Weather on mobile